sensor_id;sensor_type;location;lat;lon;timestamp;temperature;humidity
65582;DHT22;52231;40.090;18.348;2024-02-15T00:01:33;7.40;86.40
65582;DHT22;52231;40.090;18.348;2024-02-15T00:04:01;7.50;86.50
65582;DHT22;52231;40.090;18.348;2024-02-15T00:06:29;7.30;86.40
65582;DHT22;52231;40.090;18.348;2024-02-15T00:08:57;7.30;86.50
65582;DHT22;52231;40.090;18.348;2024-02-15T00:11:25;7.50;86.70
65582;DHT22;52231;40.090;18.348;2024-02-15T00:13:56;7.50;86.70
65582;DHT22;52231;40.090;18.348;2024-02-15T00:16:24;7.40;86.60
65582;DHT22;52231;40.090;18.348;2024-02-15T00:18:53;7.30;86.60
65582;DHT22;52231;40.090;18.348;2024-02-15T00:21:26;7.30;86.50
65582;DHT22;52231;40.090;18.348;2024-02-15T00:23:54;7.30;86.60
65582;DHT22;52231;40.090;18.348;2024-02-15T00:26:24;7.40;86.70
65582;DHT22;52231;40.090;18.348;2024-02-15T00:28:52;7.40;86.50
65582;DHT22;52231;40.090;18.348;2024-02-15T00:31:20;7.30;86.40
65582;DHT22;52231;40.090;18.348;2024-02-15T00:33:49;7.30;86.30
65582;DHT22;52231;40.090;18.348;2024-02-15T00:36:17;7.30;86.30
65582;DHT22;52231;40.090;18.348;2024-02-15T00:38:45;7.20;86.30
65582;DHT22;52231;40.090;18.348;2024-02-15T00:41:13;7.30;86.30
65582;DHT22;52231;40.090;18.348;2024-02-15T00:43:41;7.30;86.20
65582;DHT22;52231;40.090;18.348;2024-02-15T00:46:09;7.30;86.00
65582;DHT22;52231;40.090;18.348;2024-02-15T00:48:37;7.20;85.80
65582;DHT22;52231;40.090;18.348;2024-02-15T00:51:06;7.20;85.60
65582;DHT22;52231;40.090;18.348;2024-02-15T00:53:35;7.10;85.50
65582;DHT22;52231;40.090;18.348;2024-02-15T00:56:03;7.10;85.40
65582;DHT22;52231;40.090;18.348;2024-02-15T00:58:32;7.10;85.50
65582;DHT22;52231;40.090;18.348;2024-02-15T01:01:00;7.10;85.50
65582;DHT22;52231;40.090;18.348;2024-02-15T01:03:28;7.10;85.60
65582;DHT22;52231;40.090;18.348;2024-02-15T01:05:56;7.20;85.60
65582;DHT22;52231;40.090;18.348;2024-02-15T01:08:24;7.10;85.60
65582;DHT22;52231;40.090;18.348;2024-02-15T01:10:52;7.00;85.70
65582;DHT22;52231;40.090;18.348;2024-02-15T01:13:21;6.80;85.80
65582;DHT22;52231;40.090;18.348;2024-02-15T01:15:49;6.90;86.00
65582;DHT22;52231;40.090;18.348;2024-02-15T01:18:17;6.80;86.00
65582;DHT22;52231;40.090;18.348;2024-02-15T01:20:46;6.80;86.00
65582;DHT22;52231;40.090;18.348;2024-02-15T01:23:14;6.90;86.20
65582;DHT22;52231;40.090;18.348;2024-02-15T01:25:42;6.90;86.10
65582;DHT22;52231;40.090;18.348;2024-02-15T01:28:10;6.80;86.10
65582;DHT22;52231;40.090;18.348;2024-02-15T01:30:38;6.80;86.10
65582;DHT22;52231;40.090;18.348;2024-02-15T01:33:07;6.90;86.00
65582;DHT22;52231;40.090;18.348;2024-02-15T01:35:35;6.80;85.90
65582;DHT22;52231;40.090;18.348;2024-02-15T01:38:04;6.70;85.90
65582;DHT22;52231;40.090;18.348;2024-02-15T01:40:33;6.60;85.90
65582;DHT22;52231;40.090;18.348;2024-02-15T01:43:01;6.70;85.90
65582;DHT22;52231;40.090;18.348;2024-02-15T01:45:29;6.60;85.90
65582;DHT22;52231;40.090;18.348;2024-02-15T01:47:58;6.40;85.90
65582;DHT22;52231;40.090;18.348;2024-02-15T01:50:29;6.50;85.90
65582;DHT22;52231;40.090;18.348;2024-02-15T01:52:57;6.40;85.80
65582;DHT22;52231;40.090;18.348;2024-02-15T01:55:26;6.30;85.70
65582;DHT22;52231;40.090;18.348;2024-02-15T01:57:54;6.50;85.60
65582;DHT22;52231;40.090;18.348;2024-02-15T02:00:23;6.50;85.40
65582;DHT22;52231;40.090;18.348;2024-02-15T02:02:56;6.40;85.20
65582;DHT22;52231;40.090;18.348;2024-02-15T02:05:47;6.40;85.10
65582;DHT22;52231;40.090;18.348;2024-02-15T02:08:15;6.50;84.90
65582;DHT22;52231;40.090;18.348;2024-02-15T02:10:43;6.40;84.60
65582;DHT22;52231;40.090;18.348;2024-02-15T02:13:13;6.50;84.50
65582;DHT22;52231;40.090;18.348;2024-02-15T02:15:43;6.50;84.30
65582;DHT22;52231;40.090;18.348;2024-02-15T02:18:11;6.50;84.10
65582;DHT22;52231;40.090;18.348;2024-02-15T02:20:39;6.30;84.00
65582;DHT22;52231;40.090;18.348;2024-02-15T02:23:16;6.30;83.80
65582;DHT22;52231;40.090;18.348;2024-02-15T02:25:46;6.30;83.70
65582;DHT22;52231;40.090;18.348;2024-02-15T02:28:17;6.40;83.60
65582;DHT22;52231;40.090;18.348;2024-02-15T02:30:46;6.30;83.40
65582;DHT22;52231;40.090;18.348;2024-02-15T02:33:14;6.20;83.40
65582;DHT22;52231;40.090;18.348;2024-02-15T02:35:50;6.20;83.40
65582;DHT22;52231;40.090;18.348;2024-02-15T02:38:18;6.00;83.50
65582;DHT22;52231;40.090;18.348;2024-02-15T02:40:46;6.10;83.70
65582;DHT22;52231;40.090;18.348;2024-02-15T02:43:14;6.00;83.80
65582;DHT22;52231;40.090;18.348;2024-02-15T02:45:43;6.00;84.00
65582;DHT22;52231;40.090;18.348;2024-02-15T02:48:13;6.00;84.00
65582;DHT22;52231;40.090;18.348;2024-02-15T02:50:41;5.90;83.90
65582;DHT22;52231;40.090;18.348;2024-02-15T02:53:09;6.00;83.80
65582;DHT22;52231;40.090;18.348;2024-02-15T02:55:38;5.90;83.60
65582;DHT22;52231;40.090;18.348;2024-02-15T02:58:08;5.80;83.60
65582;DHT22;52231;40.090;18.348;2024-02-15T03:00:37;5.80;83.60
65582;DHT22;52231;40.090;18.348;2024-02-15T03:03:05;5.80;83.80
65582;DHT22;52231;40.090;18.348;2024-02-15T03:05:33;5.70;83.90
65582;DHT22;52231;40.090;18.348;2024-02-15T03:08:01;5.60;84.00
65582;DHT22;52231;40.090;18.348;2024-02-15T03:10:29;5.50;84.30
65582;DHT22;52231;40.090;18.348;2024-02-15T03:12:57;5.60;84.50
65582;DHT22;52231;40.090;18.348;2024-02-15T03:15:25;5.50;84.70
65582;DHT22;52231;40.090;18.348;2024-02-15T03:17:54;5.60;85.10
65582;DHT22;52231;40.090;18.348;2024-02-15T03:20:22;5.40;85.20
65582;DHT22;52231;40.090;18.348;2024-02-15T03:22:57;5.50;85.50
65582;DHT22;52231;40.090;18.348;2024-02-15T03:25:27;5.40;85.70
65582;DHT22;52231;40.090;18.348;2024-02-15T03:28:15;5.30;85.80
65582;DHT22;52231;40.090;18.348;2024-02-15T03:30:43;5.40;86.10
65582;DHT22;52231;40.090;18.348;2024-02-15T03:33:12;5.30;86.30
65582;DHT22;52231;40.090;18.348;2024-02-15T03:35:41;5.30;86.50
65582;DHT22;52231;40.090;18.348;2024-02-15T03:38:09;5.10;86.70
65582;DHT22;52231;40.090;18.348;2024-02-15T03:40:37;5.10;86.80
65582;DHT22;52231;40.090;18.348;2024-02-15T03:43:08;5.20;87.00
65582;DHT22;52231;40.090;18.348;2024-02-15T03:45:36;5.00;87.30
65582;DHT22;52231;40.090;18.348;2024-02-15T03:48:04;5.10;87.50
65582;DHT22;52231;40.090;18.348;2024-02-15T03:50:33;5.10;87.60
65582;DHT22;52231;40.090;18.348;2024-02-15T03:53:01;5.20;87.70
65582;DHT22;52231;40.090;18.348;2024-02-15T03:55:29;5.10;87.70
65582;DHT22;52231;40.090;18.348;2024-02-15T03:57:57;5.00;87.70
65582;DHT22;52231;40.090;18.348;2024-02-15T04:00:26;5.10;87.90
65582;DHT22;52231;40.090;18.348;2024-02-15T04:02:54;5.10;87.90
65582;DHT22;52231;40.090;18.348;2024-02-15T04:05:23;5.20;87.80
65582;DHT22;52231;40.090;18.348;2024-02-15T04:07:51;5.20;87.80
65582;DHT22;52231;40.090;18.348;2024-02-15T04:10:21;5.00;87.70
65582;DHT22;52231;40.090;18.348;2024-02-15T04:12:55;5.10;87.80
65582;DHT22;52231;40.090;18.348;2024-02-15T04:15:44;5.10;87.80
65582;DHT22;52231;40.090;18.348;2024-02-15T04:18:14;5.00;87.80
65582;DHT22;52231;40.090;18.348;2024-02-15T04:20:43;5.10;87.90
65582;DHT22;52231;40.090;18.348;2024-02-15T04:23:13;5.10;88.00
65582;DHT22;52231;40.090;18.348;2024-02-15T04:25:41;5.10;88.00
65582;DHT22;52231;40.090;18.348;2024-02-15T04:28:11;5.20;88.00
65582;DHT22;52231;40.090;18.348;2024-02-15T04:30:39;5.20;87.90
65582;DHT22;52231;40.090;18.348;2024-02-15T04:33:08;5.10;87.80
65582;DHT22;52231;40.090;18.348;2024-02-15T04:35:36;5.10;87.60
65582;DHT22;52231;40.090;18.348;2024-02-15T04:38:04;5.20;87.60
65582;DHT22;52231;40.090;18.348;2024-02-15T04:40:32;5.20;87.40
65582;DHT22;52231;40.090;18.348;2024-02-15T04:43:00;5.20;87.20
65582;DHT22;52231;40.090;18.348;2024-02-15T04:45:32;5.20;87.10
65582;DHT22;52231;40.090;18.348;2024-02-15T04:48:05;5.10;87.00
65582;DHT22;52231;40.090;18.348;2024-02-15T04:50:35;5.20;86.90
65582;DHT22;52231;40.090;18.348;2024-02-15T04:53:04;5.10;86.80
65582;DHT22;52231;40.090;18.348;2024-02-15T04:55:32;5.00;86.70
65582;DHT22;52231;40.090;18.348;2024-02-15T04:58:00;5.10;86.80
65582;DHT22;52231;40.090;18.348;2024-02-15T05:00:29;5.10;86.70
65582;DHT22;52231;40.090;18.348;2024-02-15T05:02:57;5.20;86.70
65582;DHT22;52231;40.090;18.348;2024-02-15T05:05:25;5.10;86.70
65582;DHT22;52231;40.090;18.348;2024-02-15T05:07:57;5.10;86.60
65582;DHT22;52231;40.090;18.348;2024-02-15T05:10:25;5.10;86.50
65582;DHT22;52231;40.090;18.348;2024-02-15T05:12:54;5.00;86.30
65582;DHT22;52231;40.090;18.348;2024-02-15T05:15:23;5.10;86.30
65582;DHT22;52231;40.090;18.348;2024-02-15T05:17:52;5.10;86.20
65582;DHT22;52231;40.090;18.348;2024-02-15T05:20:21;5.10;86.20
65582;DHT22;52231;40.090;18.348;2024-02-15T05:22:49;5.10;86.10
65582;DHT22;52231;40.090;18.348;2024-02-15T05:25:18;5.10;86.10
65582;DHT22;52231;40.090;18.348;2024-02-15T05:27:51;5.00;86.10
65582;DHT22;52231;40.090;18.348;2024-02-15T05:30:21;4.90;86.10
65582;DHT22;52231;40.090;18.348;2024-02-15T05:32:51;5.10;86.20
65582;DHT22;52231;40.090;18.348;2024-02-15T05:35:20;5.10;86.00
65582;DHT22;52231;40.090;18.348;2024-02-15T05:37:48;5.00;86.00
65582;DHT22;52231;40.090;18.348;2024-02-15T05:40:16;5.00;86.00
65582;DHT22;52231;40.090;18.348;2024-02-15T05:42:45;5.00;86.00
65582;DHT22;52231;40.090;18.348;2024-02-15T05:47:54;4.90;86.10
65582;DHT22;52231;40.090;18.348;2024-02-15T05:50:22;4.90;86.20
65582;DHT22;52231;40.090;18.348;2024-02-15T05:52:51;4.80;86.20
65582;DHT22;52231;40.090;18.348;2024-02-15T05:55:20;4.80;86.30
65582;DHT22;52231;40.090;18.348;2024-02-15T05:57:48;4.80;86.40
65582;DHT22;52231;40.090;18.348;2024-02-15T06:00:17;4.80;86.40
65582;DHT22;52231;40.090;18.348;2024-02-15T06:03:06;4.90;86.40
65582;DHT22;52231;40.090;18.348;2024-02-15T06:05:37;5.10;86.40
65582;DHT22;52231;40.090;18.348;2024-02-15T06:08:06;5.00;86.30
65582;DHT22;52231;40.090;18.348;2024-02-15T06:10:34;5.10;86.30
65582;DHT22;52231;40.090;18.348;2024-02-15T06:13:02;5.10;86.40
65582;DHT22;52231;40.090;18.348;2024-02-15T06:15:30;5.30;86.50
65582;DHT22;52231;40.090;18.348;2024-02-15T06:17:58;5.70;86.40
65582;DHT22;52231;40.090;18.348;2024-02-15T06:20:26;5.90;85.80
65582;DHT22;52231;40.090;18.348;2024-02-15T06:22:57;6.20;84.70
65582;DHT22;52231;40.090;18.348;2024-02-15T06:25:25;6.70;84.00
65582;DHT22;52231;40.090;18.348;2024-02-15T06:27:53;6.90;82.90
65582;DHT22;52231;40.090;18.348;2024-02-15T06:30:29;7.30;81.30
65582;DHT22;52231;40.090;18.348;2024-02-15T06:33:16;7.50;80.00
65582;DHT22;52231;40.090;18.348;2024-02-15T06:36:06;7.80;78.40
65582;DHT22;52231;40.090;18.348;2024-02-15T06:38:53;8.00;77.00
65582;DHT22;52231;40.090;18.348;2024-02-15T06:41:39;8.30;75.90
65582;DHT22;52231;40.090;18.348;2024-02-15T06:44:08;8.60;75.10
65582;DHT22;52231;40.090;18.348;2024-02-15T06:46:36;8.80;74.30
65582;DHT22;52231;40.090;18.348;2024-02-15T06:49:04;9.00;73.30
65582;DHT22;52231;40.090;18.348;2024-02-15T06:51:32;9.20;72.20
65582;DHT22;52231;40.090;18.348;2024-02-15T06:54:00;9.40;71.60
65582;DHT22;52231;40.090;18.348;2024-02-15T06:56:29;9.70;70.60
65582;DHT22;52231;40.090;18.348;2024-02-15T06:58:59;10.00;69.80
65582;DHT22;52231;40.090;18.348;2024-02-15T07:01:27;10.20;69.10
65582;DHT22;52231;40.090;18.348;2024-02-15T07:03:56;10.40;68.20
65582;DHT22;52231;40.090;18.348;2024-02-15T07:06:25;10.60;67.20
65582;DHT22;52231;40.090;18.348;2024-02-15T07:08:55;10.70;66.50
65582;DHT22;52231;40.090;18.348;2024-02-15T07:11:25;10.90;65.60
65582;DHT22;52231;40.090;18.348;2024-02-15T07:13:53;11.10;65.50
65582;DHT22;52231;40.090;18.348;2024-02-15T07:16:22;11.30;65.20
65582;DHT22;52231;40.090;18.348;2024-02-15T07:18:51;11.50;64.70
65582;DHT22;52231;40.090;18.348;2024-02-15T07:21:20;11.70;63.90
65582;DHT22;52231;40.090;18.348;2024-02-15T07:23:54;11.80;63.20
65582;DHT22;52231;40.090;18.348;2024-02-15T07:26:24;11.90;61.80
65582;DHT22;52231;40.090;18.348;2024-02-15T07:28:54;12.10;60.80
65582;DHT22;52231;40.090;18.348;2024-02-15T07:31:22;12.20;60.70
65582;DHT22;52231;40.090;18.348;2024-02-15T07:33:51;12.30;60.20
65582;DHT22;52231;40.090;18.348;2024-02-15T07:36:23;12.40;60.00
65582;DHT22;52231;40.090;18.348;2024-02-15T07:38:52;12.60;59.90
65582;DHT22;52231;40.090;18.348;2024-02-15T07:41:21;12.80;59.80
65582;DHT22;52231;40.090;18.348;2024-02-15T07:43:50;13.00;59.20
65582;DHT22;52231;40.090;18.348;2024-02-15T07:46:22;13.00;58.70
65582;DHT22;52231;40.090;18.348;2024-02-15T07:48:51;13.20;58.60
65582;DHT22;52231;40.090;18.348;2024-02-15T07:51:21;13.40;57.60
65582;DHT22;52231;40.090;18.348;2024-02-15T07:53:49;13.50;56.50
65582;DHT22;52231;40.090;18.348;2024-02-15T07:56:18;13.60;55.60
65582;DHT22;52231;40.090;18.348;2024-02-15T07:58:48;13.80;55.20
65582;DHT22;52231;40.090;18.348;2024-02-15T08:01:20;13.80;54.30
65582;DHT22;52231;40.090;18.348;2024-02-15T08:03:51;13.80;52.90
65582;DHT22;52231;40.090;18.348;2024-02-15T08:06:23;13.80;52.20
65582;DHT22;52231;40.090;18.348;2024-02-15T08:08:56;13.90;52.40
65582;DHT22;52231;40.090;18.348;2024-02-15T08:11:24;14.10;52.00
65582;DHT22;52231;40.090;18.348;2024-02-15T08:13:54;14.20;51.10
65582;DHT22;52231;40.090;18.348;2024-02-15T08:16:23;14.30;51.20
65582;DHT22;52231;40.090;18.348;2024-02-15T08:18:51;14.40;50.80
65582;DHT22;52231;40.090;18.348;2024-02-15T08:21:32;14.40;50.10
65582;DHT22;52231;40.090;18.348;2024-02-15T08:24:08;14.40;49.90
65582;DHT22;52231;40.090;18.348;2024-02-15T08:26:38;14.50;50.80
65582;DHT22;52231;40.090;18.348;2024-02-15T08:29:06;14.60;50.20
65582;DHT22;52231;40.090;18.348;2024-02-15T08:31:34;14.60;50.10
65582;DHT22;52231;40.090;18.348;2024-02-15T08:34:03;14.70;50.10
65582;DHT22;52231;40.090;18.348;2024-02-15T08:36:33;14.80;49.50
65582;DHT22;52231;40.090;18.348;2024-02-15T08:39:02;14.80;47.90
65582;DHT22;52231;40.090;18.348;2024-02-15T08:41:31;14.80;47.20
65582;DHT22;52231;40.090;18.348;2024-02-15T08:43:59;14.90;47.50
65582;DHT22;52231;40.090;18.348;2024-02-15T08:46:29;15.00;46.60
65582;DHT22;52231;40.090;18.348;2024-02-15T08:48:57;15.10;45.40
65582;DHT22;52231;40.090;18.348;2024-02-15T08:51:25;15.20;44.90
65582;DHT22;52231;40.090;18.348;2024-02-15T08:53:53;15.10;43.80
65582;DHT22;52231;40.090;18.348;2024-02-15T08:56:21;15.20;42.30
65582;DHT22;52231;40.090;18.348;2024-02-15T08:58:51;15.10;41.90
65582;DHT22;52231;40.090;18.348;2024-02-15T09:01:19;15.00;41.90
65582;DHT22;52231;40.090;18.348;2024-02-15T09:03:47;15.10;40.70
65582;DHT22;52231;40.090;18.348;2024-02-15T09:06:15;15.20;40.80
65582;DHT22;52231;40.090;18.348;2024-02-15T09:08:43;15.30;40.30
65582;DHT22;52231;40.090;18.348;2024-02-15T09:11:11;15.30;40.40
65582;DHT22;52231;40.090;18.348;2024-02-15T09:13:41;15.40;41.30
65582;DHT22;52231;40.090;18.348;2024-02-15T09:16:09;15.50;41.80
65582;DHT22;52231;40.090;18.348;2024-02-15T09:18:39;15.60;42.00
65582;DHT22;52231;40.090;18.348;2024-02-15T09:21:13;15.70;40.30
65582;DHT22;52231;40.090;18.348;2024-02-15T09:23:42;15.60;40.70
65582;DHT22;52231;40.090;18.348;2024-02-15T09:26:10;15.60;40.90
65582;DHT22;52231;40.090;18.348;2024-02-15T09:28:40;15.90;42.10
65582;DHT22;52231;40.090;18.348;2024-02-15T09:31:08;16.00;40.20
65582;DHT22;52231;40.090;18.348;2024-02-15T09:33:40;16.00;40.20
65582;DHT22;52231;40.090;18.348;2024-02-15T09:36:08;16.10;39.80
65582;DHT22;52231;40.090;18.348;2024-02-15T09:38:36;16.00;40.50
65582;DHT22;52231;40.090;18.348;2024-02-15T09:41:04;16.20;41.50
65582;DHT22;52231;40.090;18.348;2024-02-15T09:43:38;16.30;40.70
65582;DHT22;52231;40.090;18.348;2024-02-15T09:46:06;16.20;40.50
65582;DHT22;52231;40.090;18.348;2024-02-15T09:48:35;16.00;41.20
65582;DHT22;52231;40.090;18.348;2024-02-15T09:51:04;16.10;42.60
65582;DHT22;52231;40.090;18.348;2024-02-15T09:53:33;16.30;43.00
65582;DHT22;52231;40.090;18.348;2024-02-15T09:56:01;16.30;42.60
65582;DHT22;52231;40.090;18.348;2024-02-15T09:58:32;16.20;42.60
65582;DHT22;52231;40.090;18.348;2024-02-15T10:01:04;16.10;43.40
65582;DHT22;52231;40.090;18.348;2024-02-15T10:03:38;16.20;44.20
65582;DHT22;52231;40.090;18.348;2024-02-15T10:06:08;16.20;43.60
65582;DHT22;52231;40.090;18.348;2024-02-15T10:08:37;16.10;44.30
65582;DHT22;52231;40.090;18.348;2024-02-15T10:11:09;16.20;44.50
65582;DHT22;52231;40.090;18.348;2024-02-15T10:13:38;16.20;44.10
65582;DHT22;52231;40.090;18.348;2024-02-15T10:16:20;16.10;43.60
65582;DHT22;52231;40.090;18.348;2024-02-15T10:19:10;16.20;44.40
65582;DHT22;52231;40.090;18.348;2024-02-15T10:21:53;16.40;44.70
65582;DHT22;52231;40.090;18.348;2024-02-15T10:24:24;16.70;43.00
65582;DHT22;52231;40.090;18.348;2024-02-15T10:27:03;16.70;40.60
65582;DHT22;52231;40.090;18.348;2024-02-15T10:29:32;16.70;41.70
65582;DHT22;52231;40.090;18.348;2024-02-15T10:32:03;16.70;40.70
65582;DHT22;52231;40.090;18.348;2024-02-15T10:34:31;16.60;40.80
65582;DHT22;52231;40.090;18.348;2024-02-15T10:39:40;16.50;39.30
65582;DHT22;52231;40.090;18.348;2024-02-15T10:42:09;16.50;39.40
65582;DHT22;52231;40.090;18.348;2024-02-15T10:44:40;16.40;37.40
65582;DHT22;52231;40.090;18.348;2024-02-15T10:47:08;16.40;36.80
65582;DHT22;52231;40.090;18.348;2024-02-15T10:49:36;16.40;36.70
65582;DHT22;52231;40.090;18.348;2024-02-15T10:52:05;16.60;37.60
65582;DHT22;52231;40.090;18.348;2024-02-15T10:54:52;16.70;37.70
65582;DHT22;52231;40.090;18.348;2024-02-15T10:57:26;16.80;37.10
65582;DHT22;52231;40.090;18.348;2024-02-15T10:59:58;16.80;37.10
65582;DHT22;52231;40.090;18.348;2024-02-15T11:02:42;16.80;37.00
65582;DHT22;52231;40.090;18.348;2024-02-15T11:05:12;16.90;37.50
65582;DHT22;52231;40.090;18.348;2024-02-15T11:07:42;16.90;37.60
65582;DHT22;52231;40.090;18.348;2024-02-15T11:10:11;16.90;38.90
65582;DHT22;52231;40.090;18.348;2024-02-15T11:12:41;16.80;39.10
65582;DHT22;52231;40.090;18.348;2024-02-15T11:18:48;16.80;39.00
65582;DHT22;52231;40.090;18.348;2024-02-15T11:21:54;16.80;39.40
65582;DHT22;52231;40.090;18.348;2024-02-15T11:24:29;16.80;39.20
65582;DHT22;52231;40.090;18.348;2024-02-15T11:26:58;16.80;39.80
65582;DHT22;52231;40.090;18.348;2024-02-15T11:35:19;16.80;37.30
65582;DHT22;52231;40.090;18.348;2024-02-15T11:37:49;16.90;36.10
65582;DHT22;52231;40.090;18.348;2024-02-15T11:43:45;17.00;35.50
65582;DHT22;52231;40.090;18.348;2024-02-15T11:46:00;16.80;35.30
65582;DHT22;52231;40.090;18.348;2024-02-15T11:48:28;16.80;35.40
65582;DHT22;52231;40.090;18.348;2024-02-15T11:50:57;16.80;36.50
65582;DHT22;52231;40.090;18.348;2024-02-15T11:53:27;16.90;35.00
65582;DHT22;52231;40.090;18.348;2024-02-15T11:56:00;16.70;34.00
65582;DHT22;52231;40.090;18.348;2024-02-15T11:58:29;16.50;33.40
65582;DHT22;52231;40.090;18.348;2024-02-15T12:01:10;16.60;32.40
65582;DHT22;52231;40.090;18.348;2024-02-15T12:03:57;16.50;30.00
65582;DHT22;52231;40.090;18.348;2024-02-15T12:06:44;16.50;31.50
65582;DHT22;52231;40.090;18.348;2024-02-15T12:09:30;16.40;32.70
65582;DHT22;52231;40.090;18.348;2024-02-15T12:12:17;16.30;32.90
65582;DHT22;52231;40.090;18.348;2024-02-15T12:15:04;16.30;33.60
65582;DHT22;52231;40.090;18.348;2024-02-15T12:17:50;16.30;33.90
65582;DHT22;52231;40.090;18.348;2024-02-15T12:20:37;16.30;34.70
65582;DHT22;52231;40.090;18.348;2024-02-15T12:23:05;16.40;33.80
65582;DHT22;52231;40.090;18.348;2024-02-15T12:25:35;16.50;33.40
65582;DHT22;52231;40.090;18.348;2024-02-15T12:28:03;16.50;31.20
65582;DHT22;52231;40.090;18.348;2024-02-15T12:30:33;16.30;31.80
65582;DHT22;52231;40.090;18.348;2024-02-15T12:33:11;16.30;32.00
65582;DHT22;52231;40.090;18.348;2024-02-15T12:35:40;16.20;32.70
65582;DHT22;52231;40.090;18.348;2024-02-15T12:38:12;16.20;32.70
65582;DHT22;52231;40.090;18.348;2024-02-15T12:40:44;16.30;33.10
65582;DHT22;52231;40.090;18.348;2024-02-15T12:43:12;16.30;31.80
65582;DHT22;52231;40.090;18.348;2024-02-15T12:45:42;16.30;30.80
65582;DHT22;52231;40.090;18.348;2024-02-15T12:48:11;16.30;32.10
65582;DHT22;52231;40.090;18.348;2024-02-15T12:50:39;16.20;33.00
65582;DHT22;52231;40.090;18.348;2024-02-15T12:53:07;16.00;32.90
65582;DHT22;52231;40.090;18.348;2024-02-15T12:55:37;15.90;35.20
65582;DHT22;52231;40.090;18.348;2024-02-15T12:58:12;15.90;37.50
65582;DHT22;52231;40.090;18.348;2024-02-15T13:00:43;15.90;35.30
65582;DHT22;52231;40.090;18.348;2024-02-15T13:03:11;15.80;36.50
65582;DHT22;52231;40.090;18.348;2024-02-15T13:05:41;15.80;37.00
65582;DHT22;52231;40.090;18.348;2024-02-15T13:08:09;15.80;36.70
65582;DHT22;52231;40.090;18.348;2024-02-15T13:10:40;15.60;36.20
65582;DHT22;52231;40.090;18.348;2024-02-15T13:13:08;15.60;36.60
65582;DHT22;52231;40.090;18.348;2024-02-15T13:15:42;15.60;35.30
65582;DHT22;52231;40.090;18.348;2024-02-15T13:18:11;15.50;36.00
65582;DHT22;52231;40.090;18.348;2024-02-15T13:20:41;15.60;35.70
65582;DHT22;52231;40.090;18.348;2024-02-15T13:23:11;15.50;36.20
65582;DHT22;52231;40.090;18.348;2024-02-15T13:25:43;15.40;35.30
65582;DHT22;52231;40.090;18.348;2024-02-15T13:28:11;15.40;36.20
65582;DHT22;52231;40.090;18.348;2024-02-15T13:30:42;15.40;36.60
65582;DHT22;52231;40.090;18.348;2024-02-15T13:33:13;15.30;37.20
65582;DHT22;52231;40.090;18.348;2024-02-15T13:35:42;15.30;37.70
65582;DHT22;52231;40.090;18.348;2024-02-15T13:38:11;15.30;36.00
65582;DHT22;52231;40.090;18.348;2024-02-15T13:40:42;15.30;34.50
65582;DHT22;52231;40.090;18.348;2024-02-15T13:43:12;15.20;35.00
65582;DHT22;52231;40.090;18.348;2024-02-15T13:45:47;15.20;34.50
65582;DHT22;52231;40.090;18.348;2024-02-15T13:48:20;15.10;34.60
65582;DHT22;52231;40.090;18.348;2024-02-15T13:50:54;15.00;35.00
65582;DHT22;52231;40.090;18.348;2024-02-15T13:53:22;15.10;36.60
65582;DHT22;52231;40.090;18.348;2024-02-15T13:55:52;15.10;37.90
65582;DHT22;52231;40.090;18.348;2024-02-15T13:58:20;15.00;38.10
65582;DHT22;52231;40.090;18.348;2024-02-15T14:00:50;14.90;38.40
65582;DHT22;52231;40.090;18.348;2024-02-15T14:03:20;14.80;39.20
65582;DHT22;52231;40.090;18.348;2024-02-15T14:05:50;14.80;40.30
65582;DHT22;52231;40.090;18.348;2024-02-15T14:08:18;14.60;40.40
65582;DHT22;52231;40.090;18.348;2024-02-15T14:10:51;14.60;41.30
65582;DHT22;52231;40.090;18.348;2024-02-15T14:13:20;14.60;42.80
65582;DHT22;52231;40.090;18.348;2024-02-15T14:15:51;14.60;42.40
65582;DHT22;52231;40.090;18.348;2024-02-15T14:18:27;14.60;43.60
65582;DHT22;52231;40.090;18.348;2024-02-15T14:20:56;14.60;43.80
65582;DHT22;52231;40.090;18.348;2024-02-15T14:23:25;14.50;43.90
65582;DHT22;52231;40.090;18.348;2024-02-15T14:25:55;14.40;44.30
65582;DHT22;52231;40.090;18.348;2024-02-15T14:28:28;14.30;44.30
65582;DHT22;52231;40.090;18.348;2024-02-15T14:30:57;14.20;44.30
65582;DHT22;52231;40.090;18.348;2024-02-15T14:33:44;14.10;45.40
65582;DHT22;52231;40.090;18.348;2024-02-15T14:36:13;14.00;45.60
65582;DHT22;52231;40.090;18.348;2024-02-15T14:38:48;14.10;46.00
65582;DHT22;52231;40.090;18.348;2024-02-15T14:41:16;14.10;44.10
65582;DHT22;52231;40.090;18.348;2024-02-15T14:43:58;14.00;44.10
65582;DHT22;52231;40.090;18.348;2024-02-15T14:46:27;13.90;44.90
65582;DHT22;52231;40.090;18.348;2024-02-15T14:48:55;13.80;45.00
65582;DHT22;52231;40.090;18.348;2024-02-15T14:51:25;13.70;44.60
65582;DHT22;52231;40.090;18.348;2024-02-15T14:53:58;13.70;43.90
65582;DHT22;52231;40.090;18.348;2024-02-15T14:56:27;13.60;45.30
65582;DHT22;52231;40.090;18.348;2024-02-15T14:58:56;13.50;46.40
65582;DHT22;52231;40.090;18.348;2024-02-15T15:01:24;13.40;46.00
65582;DHT22;52231;40.090;18.348;2024-02-15T15:03:53;13.40;44.20
65582;DHT22;52231;40.090;18.348;2024-02-15T15:06:27;13.30;44.30
65582;DHT22;52231;40.090;18.348;2024-02-15T15:09:17;13.30;45.30
65582;DHT22;52231;40.090;18.348;2024-02-15T15:12:05;13.20;45.00
65582;DHT22;52231;40.090;18.348;2024-02-15T15:14:59;13.10;45.20
65582;DHT22;52231;40.090;18.348;2024-02-15T15:17:28;13.00;45.90
65582;DHT22;52231;40.090;18.348;2024-02-15T15:19:58;12.90;46.40
65582;DHT22;52231;40.090;18.348;2024-02-15T15:22:27;12.90;47.10
65582;DHT22;52231;40.090;18.348;2024-02-15T15:25:10;12.80;47.80
65582;DHT22;52231;40.090;18.348;2024-02-15T15:27:38;12.80;47.90
65582;DHT22;52231;40.090;18.348;2024-02-15T15:30:07;12.70;48.40
65582;DHT22;52231;40.090;18.348;2024-02-15T15:32:35;12.60;48.80
65582;DHT22;52231;40.090;18.348;2024-02-15T15:35:07;12.60;48.80
65582;DHT22;52231;40.090;18.348;2024-02-15T15:37:37;12.50;49.60
65582;DHT22;52231;40.090;18.348;2024-02-15T15:40:06;12.40;50.10
65582;DHT22;52231;40.090;18.348;2024-02-15T15:42:36;12.40;50.40
65582;DHT22;52231;40.090;18.348;2024-02-15T15:45:05;12.30;49.90
65582;DHT22;52231;40.090;18.348;2024-02-15T15:47:33;12.20;49.80
65582;DHT22;52231;40.090;18.348;2024-02-15T15:50:02;12.20;50.20
65582;DHT22;52231;40.090;18.348;2024-02-15T15:52:34;12.00;50.90
65582;DHT22;52231;40.090;18.348;2024-02-15T15:55:02;11.90;51.60
65582;DHT22;52231;40.090;18.348;2024-02-15T15:57:32;11.90;52.10
65582;DHT22;52231;40.090;18.348;2024-02-15T16:00:00;11.80;52.40
65582;DHT22;52231;40.090;18.348;2024-02-15T16:02:31;11.70;53.30